sensor_id;sensor_type;location;lat;lon;timestamp;temperature;humidity
55785;DHT22;41709;52.536;5.688;2023-07-31T00:00:13;15.40;96.30
55785;DHT22;41709;52.536;5.688;2023-07-31T00:02:39;15.40;96.00
55785;DHT22;41709;52.536;5.688;2023-07-31T00:05:05;15.40;96.10
55785;DHT22;41709;52.536;5.688;2023-07-31T00:07:32;15.40;96.00
55785;DHT22;41709;52.536;5.688;2023-07-31T00:09:57;15.40;96.00
55785;DHT22;41709;52.536;5.688;2023-07-31T00:12:23;15.40;96.10
55785;DHT22;41709;52.536;5.688;2023-07-31T00:14:49;15.40;96.00
55785;DHT22;41709;52.536;5.688;2023-07-31T00:17:15;15.40;96.10
55785;DHT22;41709;52.536;5.688;2023-07-31T00:19:40;15.40;96.10
55785;DHT22;41709;52.536;5.688;2023-07-31T00:22:06;15.40;96.10
55785;DHT22;41709;52.536;5.688;2023-07-31T00:24:31;15.40;96.20
55785;DHT22;41709;52.536;5.688;2023-07-31T00:26:57;15.30;96.30
55785;DHT22;41709;52.536;5.688;2023-07-31T00:29:22;15.30;96.40
55785;DHT22;41709;52.536;5.688;2023-07-31T00:31:48;15.30;96.50
55785;DHT22;41709;52.536;5.688;2023-07-31T00:34:14;15.30;96.50
55785;DHT22;41709;52.536;5.688;2023-07-31T00:36:39;15.40;96.50
55785;DHT22;41709;52.536;5.688;2023-07-31T00:39:05;15.40;96.50
55785;DHT22;41709;52.536;5.688;2023-07-31T00:41:30;15.40;96.40
55785;DHT22;41709;52.536;5.688;2023-07-31T00:43:56;15.50;96.40
55785;DHT22;41709;52.536;5.688;2023-07-31T00:46:22;15.50;96.50
55785;DHT22;41709;52.536;5.688;2023-07-31T00:48:48;15.50;96.50
55785;DHT22;41709;52.536;5.688;2023-07-31T00:51:14;15.50;96.50
55785;DHT22;41709;52.536;5.688;2023-07-31T00:53:40;15.50;96.50
55785;DHT22;41709;52.536;5.688;2023-07-31T00:56:06;15.60;96.60
55785;DHT22;41709;52.536;5.688;2023-07-31T00:58:32;15.60;96.60
55785;DHT22;41709;52.536;5.688;2023-07-31T01:00:58;15.60;96.70
55785;DHT22;41709;52.536;5.688;2023-07-31T01:03:24;15.60;96.60
55785;DHT22;41709;52.536;5.688;2023-07-31T01:06:14;15.60;96.70
55785;DHT22;41709;52.536;5.688;2023-07-31T01:11:28;15.60;96.90
55785;DHT22;41709;52.536;5.688;2023-07-31T01:13:57;15.60;97.10
55785;DHT22;41709;52.536;5.688;2023-07-31T01:16:23;15.60;97.20
55785;DHT22;41709;52.536;5.688;2023-07-31T01:18:49;15.70;97.40
55785;DHT22;41709;52.536;5.688;2023-07-31T01:21:39;15.70;97.30
55785;DHT22;41709;52.536;5.688;2023-07-31T01:24:28;15.70;97.30
55785;DHT22;41709;52.536;5.688;2023-07-31T01:27:06;15.80;97.50
55785;DHT22;41709;52.536;5.688;2023-07-31T01:32:37;15.80;97.40
55785;DHT22;41709;52.536;5.688;2023-07-31T01:35:05;15.90;97.30
55785;DHT22;41709;52.536;5.688;2023-07-31T01:37:31;16.00;97.30
55785;DHT22;41709;52.536;5.688;2023-07-31T01:39:58;16.00;97.30
55785;DHT22;41709;52.536;5.688;2023-07-31T01:42:23;16.10;97.30
55785;DHT22;41709;52.536;5.688;2023-07-31T01:44:49;16.10;97.20
55785;DHT22;41709;52.536;5.688;2023-07-31T01:47:14;16.10;97.30
55785;DHT22;41709;52.536;5.688;2023-07-31T01:49:40;16.10;97.50
55785;DHT22;41709;52.536;5.688;2023-07-31T01:52:06;16.10;97.60
55785;DHT22;41709;52.536;5.688;2023-07-31T01:54:31;16.10;97.80
55785;DHT22;41709;52.536;5.688;2023-07-31T01:56:58;16.10;97.90
55785;DHT22;41709;52.536;5.688;2023-07-31T01:59:23;16.00;97.90
55785;DHT22;41709;52.536;5.688;2023-07-31T02:01:49;16.10;98.00
55785;DHT22;41709;52.536;5.688;2023-07-31T02:04:14;16.00;98.10
55785;DHT22;41709;52.536;5.688;2023-07-31T02:06:40;16.10;98.10
55785;DHT22;41709;52.536;5.688;2023-07-31T02:09:05;16.10;98.10
55785;DHT22;41709;52.536;5.688;2023-07-31T02:11:31;16.10;98.10
55785;DHT22;41709;52.536;5.688;2023-07-31T02:13:56;16.20;98.10
55785;DHT22;41709;52.536;5.688;2023-07-31T02:16:22;16.20;98.00
55785;DHT22;41709;52.536;5.688;2023-07-31T02:18:48;16.20;98.00
55785;DHT22;41709;52.536;5.688;2023-07-31T02:21:13;16.20;98.00
55785;DHT22;41709;52.536;5.688;2023-07-31T02:23:39;16.20;98.00
55785;DHT22;41709;52.536;5.688;2023-07-31T02:26:04;16.20;98.10
55785;DHT22;41709;52.536;5.688;2023-07-31T02:28:30;16.20;98.10
55785;DHT22;41709;52.536;5.688;2023-07-31T02:30:56;16.10;98.10
55785;DHT22;41709;52.536;5.688;2023-07-31T02:33:21;16.10;98.30
55785;DHT22;41709;52.536;5.688;2023-07-31T02:35:47;16.10;98.30
55785;DHT22;41709;52.536;5.688;2023-07-31T02:38:12;16.10;98.30
55785;DHT22;41709;52.536;5.688;2023-07-31T02:40:39;16.00;98.30
55785;DHT22;41709;52.536;5.688;2023-07-31T02:43:06;15.90;98.20
55785;DHT22;41709;52.536;5.688;2023-07-31T02:45:32;15.70;98.60
55785;DHT22;41709;52.536;5.688;2023-07-31T02:47:58;15.60;99.00
55785;DHT22;41709;52.536;5.688;2023-07-31T02:50:23;15.50;99.20
55785;DHT22;41709;52.536;5.688;2023-07-31T02:52:49;15.50;99.30
55785;DHT22;41709;52.536;5.688;2023-07-31T02:55:14;15.60;99.30
55785;DHT22;41709;52.536;5.688;2023-07-31T02:57:40;15.60;99.30
55785;DHT22;41709;52.536;5.688;2023-07-31T03:00:06;15.60;99.50
55785;DHT22;41709;52.536;5.688;2023-07-31T03:02:32;15.60;99.50
55785;DHT22;41709;52.536;5.688;2023-07-31T03:04:58;15.60;99.50
55785;DHT22;41709;52.536;5.688;2023-07-31T03:07:23;15.60;99.40
55785;DHT22;41709;52.536;5.688;2023-07-31T03:09:49;15.60;99.40
55785;DHT22;41709;52.536;5.688;2023-07-31T03:12:14;15.70;99.30
55785;DHT22;41709;52.536;5.688;2023-07-31T03:14:40;15.70;99.20
55785;DHT22;41709;52.536;5.688;2023-07-31T03:17:06;15.70;99.20
55785;DHT22;41709;52.536;5.688;2023-07-31T03:19:32;15.70;99.10
55785;DHT22;41709;52.536;5.688;2023-07-31T03:21:59;15.70;99.20
55785;DHT22;41709;52.536;5.688;2023-07-31T03:24:25;15.70;99.20
55785;DHT22;41709;52.536;5.688;2023-07-31T03:26:51;15.70;99.20
55785;DHT22;41709;52.536;5.688;2023-07-31T03:29:16;15.70;99.20
55785;DHT22;41709;52.536;5.688;2023-07-31T03:31:42;15.70;99.20
55785;DHT22;41709;52.536;5.688;2023-07-31T03:34:07;15.70;99.20
55785;DHT22;41709;52.536;5.688;2023-07-31T03:36:33;15.60;99.20
55785;DHT22;41709;52.536;5.688;2023-07-31T03:38:59;15.70;99.20
55785;DHT22;41709;52.536;5.688;2023-07-31T03:41:24;15.70;99.20
55785;DHT22;41709;52.536;5.688;2023-07-31T03:43:51;15.70;99.10
55785;DHT22;41709;52.536;5.688;2023-07-31T03:46:17;15.60;99.10
55785;DHT22;41709;52.536;5.688;2023-07-31T03:48:43;15.60;99.20
55785;DHT22;41709;52.536;5.688;2023-07-31T03:51:08;15.50;99.30
55785;DHT22;41709;52.536;5.688;2023-07-31T03:53:34;15.60;99.40
55785;DHT22;41709;52.536;5.688;2023-07-31T03:55:59;15.50;99.40
55785;DHT22;41709;52.536;5.688;2023-07-31T03:58:25;15.50;99.50
55785;DHT22;41709;52.536;5.688;2023-07-31T04:00:50;15.50;99.40
55785;DHT22;41709;52.536;5.688;2023-07-31T04:03:16;15.50;99.40
55785;DHT22;41709;52.536;5.688;2023-07-31T04:05:42;15.50;99.30
55785;DHT22;41709;52.536;5.688;2023-07-31T04:08:07;15.60;99.30
55785;DHT22;41709;52.536;5.688;2023-07-31T04:10:33;15.60;99.60
55785;DHT22;41709;52.536;5.688;2023-07-31T04:12:59;15.60;99.20
55785;DHT22;41709;52.536;5.688;2023-07-31T04:15:26;15.60;99.10
55785;DHT22;41709;52.536;5.688;2023-07-31T04:17:51;15.70;99.10
55785;DHT22;41709;52.536;5.688;2023-07-31T04:20:17;15.80;99.00
55785;DHT22;41709;52.536;5.688;2023-07-31T04:22:42;15.80;98.80
55785;DHT22;41709;52.536;5.688;2023-07-31T04:25:08;15.80;98.70
55785;DHT22;41709;52.536;5.688;2023-07-31T04:27:34;15.90;98.70
55785;DHT22;41709;52.536;5.688;2023-07-31T04:29:59;15.90;98.60
55785;DHT22;41709;52.536;5.688;2023-07-31T04:32:25;15.90;98.50
55785;DHT22;41709;52.536;5.688;2023-07-31T04:34:50;16.00;98.40
55785;DHT22;41709;52.536;5.688;2023-07-31T04:37:16;16.00;98.40
55785;DHT22;41709;52.536;5.688;2023-07-31T04:39:42;16.00;98.30
55785;DHT22;41709;52.536;5.688;2023-07-31T04:42:07;16.10;98.60
55785;DHT22;41709;52.536;5.688;2023-07-31T04:44:33;16.10;98.20
55785;DHT22;41709;52.536;5.688;2023-07-31T04:46:58;16.10;98.10
55785;DHT22;41709;52.536;5.688;2023-07-31T04:49:24;16.20;98.00
55785;DHT22;41709;52.536;5.688;2023-07-31T04:51:49;16.20;98.00
55785;DHT22;41709;52.536;5.688;2023-07-31T04:54:15;16.10;97.80
55785;DHT22;41709;52.536;5.688;2023-07-31T04:56:41;16.20;97.90
55785;DHT22;41709;52.536;5.688;2023-07-31T04:59:07;16.20;97.80
55785;DHT22;41709;52.536;5.688;2023-07-31T05:01:32;16.10;97.70
55785;DHT22;41709;52.536;5.688;2023-07-31T05:03:58;16.20;98.00
55785;DHT22;41709;52.536;5.688;2023-07-31T05:06:23;16.20;97.70
55785;DHT22;41709;52.536;5.688;2023-07-31T05:08:49;16.20;97.60
55785;DHT22;41709;52.536;5.688;2023-07-31T05:11:15;16.20;97.50
55785;DHT22;41709;52.536;5.688;2023-07-31T05:13:40;16.20;97.40
55785;DHT22;41709;52.536;5.688;2023-07-31T05:16:06;16.20;97.40
55785;DHT22;41709;52.536;5.688;2023-07-31T05:18:31;16.20;97.50
55785;DHT22;41709;52.536;5.688;2023-07-31T05:20:57;16.20;97.50
55785;DHT22;41709;52.536;5.688;2023-07-31T05:23:23;16.20;97.50
55785;DHT22;41709;52.536;5.688;2023-07-31T05:25:48;16.20;97.50
55785;DHT22;41709;52.536;5.688;2023-07-31T05:28:14;16.10;97.60
55785;DHT22;41709;52.536;5.688;2023-07-31T05:30:39;16.20;97.70
55785;DHT22;41709;52.536;5.688;2023-07-31T05:33:05;16.10;97.60
55785;DHT22;41709;52.536;5.688;2023-07-31T05:35:31;16.10;97.60
55785;DHT22;41709;52.536;5.688;2023-07-31T05:37:56;16.20;97.60
55785;DHT22;41709;52.536;5.688;2023-07-31T05:40:22;16.10;97.50
55785;DHT22;41709;52.536;5.688;2023-07-31T05:42:47;16.20;97.50
55785;DHT22;41709;52.536;5.688;2023-07-31T05:45:13;16.20;97.40
55785;DHT22;41709;52.536;5.688;2023-07-31T05:47:39;16.20;97.40
55785;DHT22;41709;52.536;5.688;2023-07-31T05:50:05;16.20;97.30
55785;DHT22;41709;52.536;5.688;2023-07-31T05:52:31;16.30;97.30
55785;DHT22;41709;52.536;5.688;2023-07-31T05:54:56;16.30;97.20
55785;DHT22;41709;52.536;5.688;2023-07-31T05:57:22;16.30;97.10
55785;DHT22;41709;52.536;5.688;2023-07-31T05:59:47;16.30;97.10
55785;DHT22;41709;52.536;5.688;2023-07-31T06:02:13;16.20;97.20
55785;DHT22;41709;52.536;5.688;2023-07-31T06:04:38;16.20;97.60
55785;DHT22;41709;52.536;5.688;2023-07-31T06:07:04;16.20;97.30
55785;DHT22;41709;52.536;5.688;2023-07-31T06:09:30;16.10;97.30
55785;DHT22;41709;52.536;5.688;2023-07-31T06:11:56;16.10;97.30
55785;DHT22;41709;52.536;5.688;2023-07-31T06:14:22;16.10;97.40
55785;DHT22;41709;52.536;5.688;2023-07-31T06:16:47;16.10;97.50
55785;DHT22;41709;52.536;5.688;2023-07-31T06:19:13;16.10;97.60
55785;DHT22;41709;52.536;5.688;2023-07-31T06:21:39;16.10;97.60
55785;DHT22;41709;52.536;5.688;2023-07-31T06:24:05;16.00;97.60
55785;DHT22;41709;52.536;5.688;2023-07-31T06:26:31;16.10;97.60
55785;DHT22;41709;52.536;5.688;2023-07-31T06:28:57;16.10;97.60
55785;DHT22;41709;52.536;5.688;2023-07-31T06:31:22;16.10;97.60
55785;DHT22;41709;52.536;5.688;2023-07-31T06:33:51;16.10;97.60
55785;DHT22;41709;52.536;5.688;2023-07-31T06:36:17;16.10;97.60
55785;DHT22;41709;52.536;5.688;2023-07-31T06:38:43;16.00;97.70
55785;DHT22;41709;52.536;5.688;2023-07-31T06:41:09;16.00;97.70
55785;DHT22;41709;52.536;5.688;2023-07-31T06:43:36;15.90;97.70
55785;DHT22;41709;52.536;5.688;2023-07-31T06:46:07;16.00;97.70
55785;DHT22;41709;52.536;5.688;2023-07-31T06:48:34;16.00;97.60
55785;DHT22;41709;52.536;5.688;2023-07-31T06:51:00;16.00;97.80
55785;DHT22;41709;52.536;5.688;2023-07-31T06:53:26;16.00;97.70
55785;DHT22;41709;52.536;5.688;2023-07-31T06:55:52;16.00;97.70
55785;DHT22;41709;52.536;5.688;2023-07-31T06:58:18;16.00;97.80
55785;DHT22;41709;52.536;5.688;2023-07-31T07:00:43;16.00;97.70
55785;DHT22;41709;52.536;5.688;2023-07-31T07:03:09;16.00;97.90
55785;DHT22;41709;52.536;5.688;2023-07-31T07:05:34;16.00;98.00
55785;DHT22;41709;52.536;5.688;2023-07-31T07:08:00;16.10;98.00
55785;DHT22;41709;52.536;5.688;2023-07-31T07:10:26;16.00;98.00
55785;DHT22;41709;52.536;5.688;2023-07-31T07:12:52;16.00;98.00
55785;DHT22;41709;52.536;5.688;2023-07-31T07:15:18;16.10;98.00
55785;DHT22;41709;52.536;5.688;2023-07-31T07:17:43;16.10;98.00
55785;DHT22;41709;52.536;5.688;2023-07-31T07:20:09;16.10;98.00
55785;DHT22;41709;52.536;5.688;2023-07-31T07:22:35;16.10;98.00
55785;DHT22;41709;52.536;5.688;2023-07-31T07:25:01;16.10;98.00
55785;DHT22;41709;52.536;5.688;2023-07-31T07:27:26;16.10;98.00
55785;DHT22;41709;52.536;5.688;2023-07-31T07:29:52;16.10;98.10
55785;DHT22;41709;52.536;5.688;2023-07-31T07:32:18;16.10;98.20
55785;DHT22;41709;52.536;5.688;2023-07-31T07:34:44;16.10;98.30
55785;DHT22;41709;52.536;5.688;2023-07-31T07:37:10;16.10;98.40
55785;DHT22;41709;52.536;5.688;2023-07-31T07:39:35;16.10;98.50
55785;DHT22;41709;52.536;5.688;2023-07-31T07:42:01;16.00;98.60
55785;DHT22;41709;52.536;5.688;2023-07-31T07:44:26;16.00;98.50
55785;DHT22;41709;52.536;5.688;2023-07-31T07:46:52;16.10;98.60
55785;DHT22;41709;52.536;5.688;2023-07-31T07:49:18;16.10;98.60
55785;DHT22;41709;52.536;5.688;2023-07-31T07:51:43;16.10;98.60
55785;DHT22;41709;52.536;5.688;2023-07-31T07:54:09;16.10;99.00
55785;DHT22;41709;52.536;5.688;2023-07-31T07:56:34;16.20;98.70
55785;DHT22;41709;52.536;5.688;2023-07-31T07:59:01;16.20;98.80
55785;DHT22;41709;52.536;5.688;2023-07-31T08:01:27;16.20;98.90
55785;DHT22;41709;52.536;5.688;2023-07-31T08:03:52;16.30;99.00
55785;DHT22;41709;52.536;5.688;2023-07-31T08:06:18;16.30;98.90
55785;DHT22;41709;52.536;5.688;2023-07-31T08:08:44;16.30;98.90
55785;DHT22;41709;52.536;5.688;2023-07-31T08:11:09;16.40;98.90
55785;DHT22;41709;52.536;5.688;2023-07-31T08:13:35;16.40;98.90
55785;DHT22;41709;52.536;5.688;2023-07-31T08:16:03;16.40;98.90
55785;DHT22;41709;52.536;5.688;2023-07-31T08:18:28;16.50;98.90
55785;DHT22;41709;52.536;5.688;2023-07-31T08:20:54;16.50;98.80
55785;DHT22;41709;52.536;5.688;2023-07-31T08:23:19;16.50;98.80
55785;DHT22;41709;52.536;5.688;2023-07-31T08:25:45;16.60;98.80
55785;DHT22;41709;52.536;5.688;2023-07-31T08:28:11;16.50;98.80
55785;DHT22;41709;52.536;5.688;2023-07-31T08:30:37;16.50;98.80
55785;DHT22;41709;52.536;5.688;2023-07-31T08:33:02;16.50;98.90
55785;DHT22;41709;52.536;5.688;2023-07-31T08:35:28;16.50;99.00
55785;DHT22;41709;52.536;5.688;2023-07-31T08:37:54;16.60;99.10
55785;DHT22;41709;52.536;5.688;2023-07-31T08:40:20;16.60;99.10
55785;DHT22;41709;52.536;5.688;2023-07-31T08:42:48;16.60;99.10
55785;DHT22;41709;52.536;5.688;2023-07-31T08:45:16;16.60;99.00
55785;DHT22;41709;52.536;5.688;2023-07-31T08:47:46;16.60;99.20
55785;DHT22;41709;52.536;5.688;2023-07-31T08:50:13;16.60;99.20
55785;DHT22;41709;52.536;5.688;2023-07-31T08:52:39;16.60;99.40
55785;DHT22;41709;52.536;5.688;2023-07-31T08:55:05;16.80;99.50
55785;DHT22;41709;52.536;5.688;2023-07-31T08:57:32;16.70;99.60
55785;DHT22;41709;52.536;5.688;2023-07-31T08:59:59;16.80;99.60
55785;DHT22;41709;52.536;5.688;2023-07-31T09:02:31;16.70;99.50
55785;DHT22;41709;52.536;5.688;2023-07-31T09:05:00;16.80;99.50
55785;DHT22;41709;52.536;5.688;2023-07-31T09:07:27;16.80;99.50
55785;DHT22;41709;52.536;5.688;2023-07-31T09:09:52;16.80;99.50
55785;DHT22;41709;52.536;5.688;2023-07-31T09:12:19;16.80;99.60
55785;DHT22;41709;52.536;5.688;2023-07-31T09:14:46;16.90;99.70
55785;DHT22;41709;52.536;5.688;2023-07-31T09:17:12;16.90;99.70
55785;DHT22;41709;52.536;5.688;2023-07-31T09:19:38;16.90;99.80
55785;DHT22;41709;52.536;5.688;2023-07-31T09:22:05;16.90;99.80
55785;DHT22;41709;52.536;5.688;2023-07-31T09:24:32;16.90;99.90
55785;DHT22;41709;52.536;5.688;2023-07-31T09:26:59;16.90;99.90
55785;DHT22;41709;52.536;5.688;2023-07-31T09:29:25;17.00;99.90
55785;DHT22;41709;52.536;5.688;2023-07-31T09:31:52;17.10;99.90
55785;DHT22;41709;52.536;5.688;2023-07-31T09:34:18;17.20;99.90
55785;DHT22;41709;52.536;5.688;2023-07-31T09:36:49;17.20;99.70
55785;DHT22;41709;52.536;5.688;2023-07-31T09:39:17;17.20;99.40
55785;DHT22;41709;52.536;5.688;2023-07-31T09:41:44;17.10;99.40
55785;DHT22;41709;52.536;5.688;2023-07-31T09:44:11;17.20;99.50
55785;DHT22;41709;52.536;5.688;2023-07-31T09:46:36;17.20;99.50
55785;DHT22;41709;52.536;5.688;2023-07-31T09:49:12;17.30;99.80
55785;DHT22;41709;52.536;5.688;2023-07-31T09:51:39;17.30;99.90
55785;DHT22;41709;52.536;5.688;2023-07-31T09:54:15;17.30;99.80
55785;DHT22;41709;52.536;5.688;2023-07-31T09:56:46;17.30;99.90
55785;DHT22;41709;52.536;5.688;2023-07-31T09:59:19;17.40;99.90
55785;DHT22;41709;52.536;5.688;2023-07-31T10:01:46;17.40;99.90
55785;DHT22;41709;52.536;5.688;2023-07-31T10:04:12;17.40;99.80
55785;DHT22;41709;52.536;5.688;2023-07-31T10:06:40;17.40;99.80
55785;DHT22;41709;52.536;5.688;2023-07-31T10:09:09;17.50;99.70
55785;DHT22;41709;52.536;5.688;2023-07-31T10:11:42;17.50;99.60
55785;DHT22;41709;52.536;5.688;2023-07-31T10:14:09;17.50;99.50
55785;DHT22;41709;52.536;5.688;2023-07-31T10:16:38;17.50;99.60
55785;DHT22;41709;52.536;5.688;2023-07-31T10:19:05;17.50;99.70
55785;DHT22;41709;52.536;5.688;2023-07-31T10:21:32;17.50;99.80
55785;DHT22;41709;52.536;5.688;2023-07-31T10:24:01;17.40;99.80
55785;DHT22;41709;52.536;5.688;2023-07-31T10:26:28;17.50;99.90
55785;DHT22;41709;52.536;5.688;2023-07-31T10:28:54;17.30;99.90
55785;DHT22;41709;52.536;5.688;2023-07-31T10:31:21;17.40;99.90
55785;DHT22;41709;52.536;5.688;2023-07-31T10:33:46;17.40;99.90
55785;DHT22;41709;52.536;5.688;2023-07-31T10:36:19;17.40;99.90
55785;DHT22;41709;52.536;5.688;2023-07-31T10:38:48;17.40;99.90
55785;DHT22;41709;52.536;5.688;2023-07-31T10:41:14;17.40;99.90
55785;DHT22;41709;52.536;5.688;2023-07-31T10:43:40;17.40;99.90
55785;DHT22;41709;52.536;5.688;2023-07-31T10:46:11;17.40;99.90
55785;DHT22;41709;52.536;5.688;2023-07-31T10:48:39;17.40;99.90
55785;DHT22;41709;52.536;5.688;2023-07-31T10:51:12;17.40;99.90
55785;DHT22;41709;52.536;5.688;2023-07-31T10:53:39;17.40;99.90
55785;DHT22;41709;52.536;5.688;2023-07-31T10:56:07;17.40;99.90
55785;DHT22;41709;52.536;5.688;2023-07-31T10:58:34;17.40;99.90
55785;DHT22;41709;52.536;5.688;2023-07-31T11:01:02;17.40;99.90
55785;DHT22;41709;52.536;5.688;2023-07-31T11:03:47;17.40;99.90
55785;DHT22;41709;52.536;5.688;2023-07-31T11:06:19;17.40;99.90
55785;DHT22;41709;52.536;5.688;2023-07-31T11:08:47;17.40;99.90
55785;DHT22;41709;52.536;5.688;2023-07-31T11:11:15;17.40;99.90
55785;DHT22;41709;52.536;5.688;2023-07-31T11:13:46;17.40;99.90
55785;DHT22;41709;52.536;5.688;2023-07-31T11:16:13;17.40;99.90
55785;DHT22;41709;52.536;5.688;2023-07-31T11:18:40;17.40;99.90
55785;DHT22;41709;52.536;5.688;2023-07-31T11:21:07;17.40;99.90
55785;DHT22;41709;52.536;5.688;2023-07-31T11:23:33;17.40;99.90
55785;DHT22;41709;52.536;5.688;2023-07-31T11:25:59;17.40;99.90
55785;DHT22;41709;52.536;5.688;2023-07-31T11:28:25;17.40;99.90
55785;DHT22;41709;52.536;5.688;2023-07-31T11:30:51;17.40;99.90
55785;DHT22;41709;52.536;5.688;2023-07-31T11:33:17;17.40;99.90
55785;DHT22;41709;52.536;5.688;2023-07-31T11:35:47;17.50;99.90
55785;DHT22;41709;52.536;5.688;2023-07-31T11:38:33;17.50;99.90
55785;DHT22;41709;52.536;5.688;2023-07-31T11:41:01;17.50;99.90
55785;DHT22;41709;52.536;5.688;2023-07-31T11:43:34;17.50;99.90
55785;DHT22;41709;52.536;5.688;2023-07-31T11:46:02;17.60;99.90
55785;DHT22;41709;52.536;5.688;2023-07-31T11:48:33;17.70;99.90
55785;DHT22;41709;52.536;5.688;2023-07-31T11:51:02;17.70;99.90
55785;DHT22;41709;52.536;5.688;2023-07-31T11:56:00;17.80;99.90
55785;DHT22;41709;52.536;5.688;2023-07-31T11:58:27;17.80;99.90
55785;DHT22;41709;52.536;5.688;2023-07-31T12:00:54;17.80;99.90
55785;DHT22;41709;52.536;5.688;2023-07-31T12:03:20;18.00;99.90
55785;DHT22;41709;52.536;5.688;2023-07-31T12:05:47;18.00;99.70
55785;DHT22;41709;52.536;5.688;2023-07-31T12:08:13;18.10;99.30
55785;DHT22;41709;52.536;5.688;2023-07-31T12:10:39;18.10;99.00
55785;DHT22;41709;52.536;5.688;2023-07-31T12:13:22;18.00;98.80
55785;DHT22;41709;52.536;5.688;2023-07-31T12:15:48;17.90;99.10
55785;DHT22;41709;52.536;5.688;2023-07-31T12:18:22;17.90;99.50
55785;DHT22;41709;52.536;5.688;2023-07-31T12:20:49;17.90;99.70
55785;DHT22;41709;52.536;5.688;2023-07-31T12:23:20;18.00;99.80
55785;DHT22;41709;52.536;5.688;2023-07-31T12:26:13;18.10;99.70
55785;DHT22;41709;52.536;5.688;2023-07-31T12:28:41;18.00;99.60
55785;DHT22;41709;52.536;5.688;2023-07-31T12:31:09;18.10;99.90
55785;DHT22;41709;52.536;5.688;2023-07-31T12:33:36;18.10;99.80
55785;DHT22;41709;52.536;5.688;2023-07-31T12:36:04;18.20;99.60
55785;DHT22;41709;52.536;5.688;2023-07-31T12:38:31;18.30;98.90
55785;DHT22;41709;52.536;5.688;2023-07-31T12:40:57;18.30;98.40
55785;DHT22;41709;52.536;5.688;2023-07-31T12:43:23;18.30;98.40
55785;DHT22;41709;52.536;5.688;2023-07-31T12:45:49;18.30;98.50
55785;DHT22;41709;52.536;5.688;2023-07-31T12:48:14;18.30;98.50
55785;DHT22;41709;52.536;5.688;2023-07-31T12:50:40;18.20;98.70
55785;DHT22;41709;52.536;5.688;2023-07-31T12:53:06;18.20;98.70
55785;DHT22;41709;52.536;5.688;2023-07-31T12:55:32;18.30;98.90
55785;DHT22;41709;52.536;5.688;2023-07-31T12:58:03;18.30;98.70
55785;DHT22;41709;52.536;5.688;2023-07-31T13:00:28;18.30;98.70
55785;DHT22;41709;52.536;5.688;2023-07-31T13:02:54;18.40;98.80
55785;DHT22;41709;52.536;5.688;2023-07-31T13:05:20;18.40;98.40
55785;DHT22;41709;52.536;5.688;2023-07-31T13:07:46;18.40;98.10
55785;DHT22;41709;52.536;5.688;2023-07-31T13:10:12;18.40;98.00
55785;DHT22;41709;52.536;5.688;2023-07-31T13:12:38;18.40;97.80
55785;DHT22;41709;52.536;5.688;2023-07-31T13:15:05;18.40;98.20
55785;DHT22;41709;52.536;5.688;2023-07-31T13:17:30;18.40;98.60
55785;DHT22;41709;52.536;5.688;2023-07-31T13:19:56;18.40;98.80
55785;DHT22;41709;52.536;5.688;2023-07-31T13:22:22;18.50;98.70
55785;DHT22;41709;52.536;5.688;2023-07-31T13:24:47;18.60;98.70
55785;DHT22;41709;52.536;5.688;2023-07-31T13:27:14;18.60;97.60
55785;DHT22;41709;52.536;5.688;2023-07-31T13:29:43;18.60;97.50
55785;DHT22;41709;52.536;5.688;2023-07-31T13:32:09;18.60;97.60
55785;DHT22;41709;52.536;5.688;2023-07-31T13:34:34;18.70;97.40
55785;DHT22;41709;52.536;5.688;2023-07-31T13:37:00;18.80;97.80
55785;DHT22;41709;52.536;5.688;2023-07-31T13:39:25;18.90;97.80
55785;DHT22;41709;52.536;5.688;2023-07-31T13:41:51;18.90;97.70
55785;DHT22;41709;52.536;5.688;2023-07-31T13:44:16;19.10;97.10
55785;DHT22;41709;52.536;5.688;2023-07-31T13:46:42;19.20;96.60
55785;DHT22;41709;52.536;5.688;2023-07-31T13:49:08;19.30;96.70
55785;DHT22;41709;52.536;5.688;2023-07-31T13:51:33;19.20;96.30
55785;DHT22;41709;52.536;5.688;2023-07-31T13:53:59;19.20;96.70
55785;DHT22;41709;52.536;5.688;2023-07-31T13:56:24;19.30;96.40
55785;DHT22;41709;52.536;5.688;2023-07-31T13:58:50;19.40;95.80
55785;DHT22;41709;52.536;5.688;2023-07-31T14:01:16;19.40;95.70
55785;DHT22;41709;52.536;5.688;2023-07-31T14:03:41;19.40;95.50
55785;DHT22;41709;52.536;5.688;2023-07-31T14:06:07;19.40;95.30
55785;DHT22;41709;52.536;5.688;2023-07-31T14:08:32;19.30;95.20
55785;DHT22;41709;52.536;5.688;2023-07-31T14:10:58;19.40;95.40
55785;DHT22;41709;52.536;5.688;2023-07-31T14:13:23;19.40;94.80
55785;DHT22;41709;52.536;5.688;2023-07-31T14:15:49;19.50;94.90
55785;DHT22;41709;52.536;5.688;2023-07-31T14:18:15;19.50;94.90
55785;DHT22;41709;52.536;5.688;2023-07-31T14:20:40;19.40;94.70
55785;DHT22;41709;52.536;5.688;2023-07-31T14:23:06;19.30;94.70
55785;DHT22;41709;52.536;5.688;2023-07-31T14:25:31;19.30;94.60
55785;DHT22;41709;52.536;5.688;2023-07-31T14:27:57;19.20;94.90
55785;DHT22;41709;52.536;5.688;2023-07-31T14:30:22;19.20;95.10
55785;DHT22;41709;52.536;5.688;2023-07-31T14:32:48;19.20;95.30
55785;DHT22;41709;52.536;5.688;2023-07-31T14:35:14;19.20;95.30
55785;DHT22;41709;52.536;5.688;2023-07-31T14:37:41;19.20;95.10
55785;DHT22;41709;52.536;5.688;2023-07-31T14:40:08;19.20;95.30
55785;DHT22;41709;52.536;5.688;2023-07-31T14:42:35;19.20;95.40
55785;DHT22;41709;52.536;5.688;2023-07-31T14:45:01;19.20;95.20
55785;DHT22;41709;52.536;5.688;2023-07-31T14:47:27;19.20;95.40
55785;DHT22;41709;52.536;5.688;2023-07-31T14:49:53;19.20;95.60
55785;DHT22;41709;52.536;5.688;2023-07-31T14:52:18;19.20;95.70
55785;DHT22;41709;52.536;5.688;2023-07-31T14:54:45;19.10;95.70
55785;DHT22;41709;52.536;5.688;2023-07-31T14:57:10;19.10;95.80
55785;DHT22;41709;52.536;5.688;2023-07-31T14:59:36;19.10;96.00
55785;DHT22;41709;52.536;5.688;2023-07-31T15:02:02;19.00;96.10
55785;DHT22;41709;52.536;5.688;2023-07-31T15:04:28;19.00;96.10
55785;DHT22;41709;52.536;5.688;2023-07-31T15:06:54;18.90;96.10
55785;DHT22;41709;52.536;5.688;2023-07-31T15:09:20;18.90;96.30
55785;DHT22;41709;52.536;5.688;2023-07-31T15:11:45;18.90;96.30
55785;DHT22;41709;52.536;5.688;2023-07-31T15:14:11;18.80;96.40
55785;DHT22;41709;52.536;5.688;2023-07-31T15:16:37;18.80;96.40
55785;DHT22;41709;52.536;5.688;2023-07-31T15:19:02;18.80;96.30
55785;DHT22;41709;52.536;5.688;2023-07-31T15:21:28;18.80;96.50
55785;DHT22;41709;52.536;5.688;2023-07-31T15:23:53;18.80;96.50
55785;DHT22;41709;52.536;5.688;2023-07-31T15:26:19;18.60;96.50
55785;DHT22;41709;52.536;5.688;2023-07-31T15:28:48;18.50;96.80
55785;DHT22;41709;52.536;5.688;2023-07-31T15:31:14;18.30;97.20
55785;DHT22;41709;52.536;5.688;2023-07-31T15:33:39;18.30;97.30